sensor_id;sensor_type;location;lat;lon;timestamp;P1;durP1;ratioP1;P2;durP2;ratioP2
77160;SDS011;66135;0.000;0.000;2023-05-29T00:03:37;2.30;;;1.20;;
77160;SDS011;66135;0.000;0.000;2023-05-29T00:06:02;3.38;;;1.17;;
77160;SDS011;66135;0.000;0.000;2023-05-29T00:10:53;2.65;;;1.10;;
77160;SDS011;66135;0.000;0.000;2023-05-29T00:15:44;3.03;;;1.30;;
77160;SDS011;66135;0.000;0.000;2023-05-29T00:18:11;3.78;;;1.27;;
77160;SDS011;66135;0.000;0.000;2023-05-29T00:23:03;1.65;;;0.98;;
77160;SDS011;66135;0.000;0.000;2023-05-29T00:25:29;2.72;;;1.40;;
77160;SDS011;66135;0.000;0.000;2023-05-29T00:30:20;2.60;;;1.20;;
77160;SDS011;66135;0.000;0.000;2023-05-29T00:35:10;2.40;;;1.63;;
77160;SDS011;66135;0.000;0.000;2023-05-29T00:37:36;2.53;;;1.35;;
77160;SDS011;66135;0.000;0.000;2023-05-29T00:40:01;4.45;;;3.40;;
77160;SDS011;66135;0.000;0.000;2023-05-29T00:42:28;2.50;;;1.52;;
77160;SDS011;66135;0.000;0.000;2023-05-29T00:47:19;2.93;;;1.20;;
77160;SDS011;66135;0.000;0.000;2023-05-29T00:52:10;2.25;;;0.90;;
77160;SDS011;66135;0.000;0.000;2023-05-29T00:54:36;3.67;;;2.03;;
77160;SDS011;66135;0.000;0.000;2023-05-29T00:59:30;2.15;;;1.30;;
77160;SDS011;66135;0.000;0.000;2023-05-29T01:01:58;2.90;;;1.65;;
77160;SDS011;66135;0.000;0.000;2023-05-29T01:04:25;2.75;;;1.15;;
77160;SDS011;66135;0.000;0.000;2023-05-29T01:06:51;2.15;;;1.23;;
77160;SDS011;66135;0.000;0.000;2023-05-29T01:28:57;2.45;;;1.33;;
77160;SDS011;66135;0.000;0.000;2023-05-29T01:31:26;2.63;;;1.98;;
77160;SDS011;66135;0.000;0.000;2023-05-29T01:33:52;1.95;;;0.98;;
77160;SDS011;66135;0.000;0.000;2023-05-29T01:36:19;2.33;;;1.80;;
77160;SDS011;66135;0.000;0.000;2023-05-29T01:41:10;2.53;;;1.00;;
77160;SDS011;66135;0.000;0.000;2023-05-29T01:46:02;2.75;;;1.25;;
77160;SDS011;66135;0.000;0.000;2023-05-29T01:50:53;2.33;;;0.93;;
77160;SDS011;66135;0.000;0.000;2023-05-29T01:53:20;1.60;;;1.02;;
77160;SDS011;66135;0.000;0.000;2023-05-29T01:55:47;6.78;;;1.55;;
77160;SDS011;66135;0.000;0.000;2023-05-29T02:00:39;1.88;;;0.85;;
77160;SDS011;66135;0.000;0.000;2023-05-29T02:03:05;2.88;;;1.75;;
77160;SDS011;66135;0.000;0.000;2023-05-29T02:07:55;3.65;;;1.08;;
77160;SDS011;66135;0.000;0.000;2023-05-29T02:12:46;3.10;;;0.90;;
77160;SDS011;66135;0.000;0.000;2023-05-29T02:17:37;1.30;;;0.70;;
77160;SDS011;66135;0.000;0.000;2023-05-29T02:20:02;2.17;;;0.73;;
77160;SDS011;66135;0.000;0.000;2023-05-29T02:22:32;2.40;;;0.70;;
77160;SDS011;66135;0.000;0.000;2023-05-29T02:27:22;3.40;;;0.90;;
77160;SDS011;66135;0.000;0.000;2023-05-29T02:32:13;2.25;;;0.85;;
77160;SDS011;66135;0.000;0.000;2023-05-29T02:37:04;1.65;;;0.82;;
77160;SDS011;66135;0.000;0.000;2023-05-29T02:41:56;1.77;;;0.80;;
77160;SDS011;66135;0.000;0.000;2023-05-29T02:46:47;2.80;;;0.93;;
77160;SDS011;66135;0.000;0.000;2023-05-29T02:51:37;2.23;;;1.13;;
77160;SDS011;66135;0.000;0.000;2023-05-29T02:56:28;1.70;;;0.60;;
77160;SDS011;66135;0.000;0.000;2023-05-29T03:01:19;2.10;;;0.90;;
77160;SDS011;66135;0.000;0.000;2023-05-29T03:06:10;3.17;;;0.95;;
77160;SDS011;66135;0.000;0.000;2023-05-29T03:08:37;2.25;;;0.70;;
77160;SDS011;66135;0.000;0.000;2023-05-29T03:11:09;2.17;;;0.68;;
77160;SDS011;66135;0.000;0.000;2023-05-29T03:13:36;2.35;;;1.02;;
77160;SDS011;66135;0.000;0.000;2023-05-29T03:18:27;3.65;;;0.93;;
77160;SDS011;66135;0.000;0.000;2023-05-29T03:23:19;1.58;;;1.15;;
77160;SDS011;66135;0.000;0.000;2023-05-29T03:28:10;1.93;;;0.90;;
77160;SDS011;66135;0.000;0.000;2023-05-29T03:33:00;1.57;;;0.53;;
77160;SDS011;66135;0.000;0.000;2023-05-29T03:35:28;1.38;;;0.73;;
77160;SDS011;66135;0.000;0.000;2023-05-29T03:37:57;2.70;;;0.40;;
77160;SDS011;66135;0.000;0.000;2023-05-29T03:42:48;2.97;;;1.05;;
77160;SDS011;66135;0.000;0.000;2023-05-29T03:45:13;1.88;;;0.70;;
77160;SDS011;66135;0.000;0.000;2023-05-29T03:50:04;2.38;;;0.60;;
77160;SDS011;66135;0.000;0.000;2023-05-29T03:54:55;2.17;;;1.30;;
77160;SDS011;66135;0.000;0.000;2023-05-29T03:59:46;2.77;;;0.30;;
77160;SDS011;66135;0.000;0.000;2023-05-29T04:04:37;2.25;;;0.75;;
77160;SDS011;66135;0.000;0.000;2023-05-29T04:07:04;1.10;;;0.52;;
77160;SDS011;66135;0.000;0.000;2023-05-29T04:09:31;1.98;;;0.38;;
77160;SDS011;66135;0.000;0.000;2023-05-29T04:14:22;1.50;;;0.20;;
77160;SDS011;66135;0.000;0.000;2023-05-29T04:16:48;1.67;;;0.52;;
77160;SDS011;66135;0.000;0.000;2023-05-29T04:21:38;1.40;;;0.57;;
77160;SDS011;66135;0.000;0.000;2023-05-29T04:24:04;1.83;;;0.32;;
77160;SDS011;66135;0.000;0.000;2023-05-29T04:28:57;4.05;;;1.45;;
77160;SDS011;66135;0.000;0.000;2023-05-29T04:33:50;1.58;;;0.30;;
77160;SDS011;66135;0.000;0.000;2023-05-29T04:36:20;2.90;;;1.27;;
77160;SDS011;66135;0.000;0.000;2023-05-29T04:38:48;1.77;;;0.43;;
77160;SDS011;66135;0.000;0.000;2023-05-29T04:41:16;2.17;;;0.68;;
77160;SDS011;66135;0.000;0.000;2023-05-29T04:46:07;2.65;;;0.43;;
77160;SDS011;66135;0.000;0.000;2023-05-29T04:48:37;2.50;;;0.60;;
77160;SDS011;66135;0.000;0.000;2023-05-29T04:51:05;5.07;;;1.40;;
77160;SDS011;66135;0.000;0.000;2023-05-29T04:55:57;23.17;;;10.05;;
77160;SDS011;66135;0.000;0.000;2023-05-29T04:58:24;34.33;;;15.98;;
77160;SDS011;66135;0.000;0.000;2023-05-29T05:00:50;28.60;;;12.88;;
77160;SDS011;66135;0.000;0.000;2023-05-29T05:05:41;27.73;;;11.45;;
77160;SDS011;66135;0.000;0.000;2023-05-29T05:08:08;25.85;;;11.70;;
77160;SDS011;66135;0.000;0.000;2023-05-29T05:10:35;29.08;;;12.38;;
77160;SDS011;66135;0.000;0.000;2023-05-29T05:15:27;23.42;;;12.07;;
77160;SDS011;66135;0.000;0.000;2023-05-29T05:20:18;22.87;;;11.43;;
77160;SDS011;66135;0.000;0.000;2023-05-29T05:22:44;21.95;;;10.02;;
77160;SDS011;66135;0.000;0.000;2023-05-29T05:27:35;22.50;;;10.68;;
77160;SDS011;66135;0.000;0.000;2023-05-29T05:32:26;23.15;;;11.10;;
77160;SDS011;66135;0.000;0.000;2023-05-29T05:37:17;26.53;;;10.60;;
77160;SDS011;66135;0.000;0.000;2023-05-29T05:42:08;21.73;;;11.23;;
77160;SDS011;66135;0.000;0.000;2023-05-29T05:46:59;20.90;;;9.90;;
77160;SDS011;66135;0.000;0.000;2023-05-29T05:49:24;23.40;;;10.57;;
77160;SDS011;66135;0.000;0.000;2023-05-29T05:51:49;21.58;;;9.85;;
77160;SDS011;66135;0.000;0.000;2023-05-29T05:56:41;22.80;;;9.87;;
77160;SDS011;66135;0.000;0.000;2023-05-29T05:59:06;22.35;;;10.60;;
77160;SDS011;66135;0.000;0.000;2023-05-29T06:03:58;19.88;;;12.00;;
77160;SDS011;66135;0.000;0.000;2023-05-29T06:08:49;22.42;;;10.10;;
77160;SDS011;66135;0.000;0.000;2023-05-29T06:11:14;22.83;;;10.13;;
77160;SDS011;66135;0.000;0.000;2023-05-29T06:16:06;19.13;;;8.90;;
77160;SDS011;66135;0.000;0.000;2023-05-29T06:18:31;21.38;;;10.13;;
77160;SDS011;66135;0.000;0.000;2023-05-29T06:23:22;16.90;;;8.50;;
77160;SDS011;66135;0.000;0.000;2023-05-29T06:28:13;18.85;;;8.05;;
77160;SDS011;66135;0.000;0.000;2023-05-29T06:30:38;18.55;;;9.90;;
77160;SDS011;66135;0.000;0.000;2023-05-29T06:33:04;16.33;;;7.43;;
77160;SDS011;66135;0.000;0.000;2023-05-29T06:37:56;16.35;;;6.78;;
77160;SDS011;66135;0.000;0.000;2023-05-29T06:42:46;15.63;;;7.18;;
77160;SDS011;66135;0.000;0.000;2023-05-29T06:47:41;14.30;;;6.72;;
77160;SDS011;66135;0.000;0.000;2023-05-29T06:50:07;17.30;;;7.25;;
77160;SDS011;66135;0.000;0.000;2023-05-29T06:54:58;15.47;;;7.20;;
77160;SDS011;66135;0.000;0.000;2023-05-29T06:57:23;15.18;;;6.50;;
77160;SDS011;66135;0.000;0.000;2023-05-29T07:02:14;15.55;;;6.60;;
77160;SDS011;66135;0.000;0.000;2023-05-29T07:07:05;15.83;;;6.10;;
77160;SDS011;66135;0.000;0.000;2023-05-29T07:09:30;13.52;;;4.80;;
77160;SDS011;66135;0.000;0.000;2023-05-29T07:14:21;14.73;;;5.45;;
77160;SDS011;66135;0.000;0.000;2023-05-29T07:16:46;11.85;;;4.95;;
77160;SDS011;66135;0.000;0.000;2023-05-29T07:21:38;11.20;;;4.28;;
77160;SDS011;66135;0.000;0.000;2023-05-29T07:26:29;10.95;;;4.70;;
77160;SDS011;66135;0.000;0.000;2023-05-29T07:28:55;11.90;;;4.90;;
77160;SDS011;66135;0.000;0.000;2023-05-29T07:31:21;14.30;;;5.40;;
77160;SDS011;66135;0.000;0.000;2023-05-29T07:33:47;12.98;;;5.75;;
77160;SDS011;66135;0.000;0.000;2023-05-29T07:36:14;12.43;;;5.35;;
77160;SDS011;66135;0.000;0.000;2023-05-29T07:38:41;10.27;;;3.88;;
77160;SDS011;66135;0.000;0.000;2023-05-29T07:41:06;12.02;;;5.40;;
77160;SDS011;66135;0.000;0.000;2023-05-29T07:45:56;10.10;;;3.33;;
77160;SDS011;66135;0.000;0.000;2023-05-29T07:50:47;12.10;;;3.78;;
77160;SDS011;66135;0.000;0.000;2023-05-29T07:53:13;9.02;;;3.67;;
77160;SDS011;66135;0.000;0.000;2023-05-29T07:55:38;14.35;;;5.30;;
77160;SDS011;66135;0.000;0.000;2023-05-29T08:00:29;14.70;;;4.33;;
77160;SDS011;66135;0.000;0.000;2023-05-29T08:05:20;9.02;;;3.67;;
77160;SDS011;66135;0.000;0.000;2023-05-29T08:07:45;9.93;;;3.15;;
77160;SDS011;66135;0.000;0.000;2023-05-29T08:10:12;10.10;;;2.38;;
77160;SDS011;66135;0.000;0.000;2023-05-29T08:15:03;7.40;;;2.27;;
77160;SDS011;66135;0.000;0.000;2023-05-29T08:17:29;8.60;;;2.78;;
77160;SDS011;66135;0.000;0.000;2023-05-29T08:22:20;9.32;;;2.88;;
77160;SDS011;66135;0.000;0.000;2023-05-29T08:24:47;9.02;;;2.17;;
77160;SDS011;66135;0.000;0.000;2023-05-29T08:29:38;11.45;;;2.80;;
77160;SDS011;66135;0.000;0.000;2023-05-29T08:34:29;9.23;;;2.15;;
77160;SDS011;66135;0.000;0.000;2023-05-29T08:39:20;9.25;;;2.13;;
77160;SDS011;66135;0.000;0.000;2023-05-29T08:44:13;6.63;;;1.80;;
77160;SDS011;66135;0.000;0.000;2023-05-29T08:46:39;9.45;;;1.75;;
77160;SDS011;66135;0.000;0.000;2023-05-29T08:49:05;7.18;;;2.85;;
77160;SDS011;66135;0.000;0.000;2023-05-29T08:51:37;7.68;;;2.13;;
77160;SDS011;66135;0.000;0.000;2023-05-29T08:54:08;4.65;;;1.65;;
77160;SDS011;66135;0.000;0.000;2023-05-29T08:56:35;7.28;;;1.60;;
77160;SDS011;66135;0.000;0.000;2023-05-29T09:01:26;7.43;;;2.03;;
77160;SDS011;66135;0.000;0.000;2023-05-29T09:03:51;6.68;;;1.65;;
77160;SDS011;66135;0.000;0.000;2023-05-29T09:08:43;6.18;;;1.63;;
77160;SDS011;66135;0.000;0.000;2023-05-29T09:11:09;6.00;;;1.55;;
77160;SDS011;66135;0.000;0.000;2023-05-29T09:16:01;7.00;;;1.10;;
77160;SDS011;66135;0.000;0.000;2023-05-29T09:18:29;6.43;;;1.42;;
77160;SDS011;66135;0.000;0.000;2023-05-29T09:20:58;5.50;;;1.30;;
77160;SDS011;66135;0.000;0.000;2023-05-29T09:23:27;9.27;;;1.52;;
77160;SDS011;66135;0.000;0.000;2023-05-29T09:25:53;4.47;;;1.23;;
77160;SDS011;66135;0.000;0.000;2023-05-29T09:28:20;8.85;;;1.00;;
77160;SDS011;66135;0.000;0.000;2023-05-29T09:30:46;3.83;;;1.13;;
77160;SDS011;66135;0.000;0.000;2023-05-29T09:35:39;5.13;;;1.05;;
77160;SDS011;66135;0.000;0.000;2023-05-29T09:38:07;3.97;;;0.90;;
77160;SDS011;66135;0.000;0.000;2023-05-29T09:40:33;4.72;;;0.90;;
77160;SDS011;66135;0.000;0.000;2023-05-29T09:45:37;5.25;;;0.93;;
77160;SDS011;66135;0.000;0.000;2023-05-29T09:48:15;9.15;;;1.70;;
77160;SDS011;66135;0.000;0.000;2023-05-29T09:50:43;6.72;;;1.70;;
77160;SDS011;66135;0.000;0.000;2023-05-29T09:53:20;7.00;;;1.55;;
77160;SDS011;66135;0.000;0.000;2023-05-29T09:55:49;5.25;;;0.88;;
77160;SDS011;66135;0.000;0.000;2023-05-29T09:58:16;4.47;;;1.00;;
77160;SDS011;66135;0.000;0.000;2023-05-29T10:00:43;7.95;;;2.15;;
77160;SDS011;66135;0.000;0.000;2023-05-29T10:05:34;6.00;;;1.33;;
77160;SDS011;66135;0.000;0.000;2023-05-29T10:08:00;4.85;;;1.40;;
77160;SDS011;66135;0.000;0.000;2023-05-29T10:10:28;4.40;;;0.82;;
77160;SDS011;66135;0.000;0.000;2023-05-29T10:12:54;3.25;;;1.13;;
77160;SDS011;66135;0.000;0.000;2023-05-29T10:15:21;7.22;;;2.10;;
77160;SDS011;66135;0.000;0.000;2023-05-29T10:18:05;5.88;;;1.35;;
77160;SDS011;66135;0.000;0.000;2023-05-29T10:20:37;7.95;;;2.05;;
77160;SDS011;66135;0.000;0.000;2023-05-29T10:23:03;5.90;;;0.85;;
77160;SDS011;66135;0.000;0.000;2023-05-29T10:25:30;6.03;;;1.35;;
77160;SDS011;66135;0.000;0.000;2023-05-29T10:28:00;4.47;;;0.85;;
77160;SDS011;66135;0.000;0.000;2023-05-29T10:36:17;5.25;;;0.75;;
77160;SDS011;66135;0.000;0.000;2023-05-29T10:38:46;6.55;;;1.00;;
77160;SDS011;66135;0.000;0.000;2023-05-29T10:43:57;4.22;;;0.73;;
77160;SDS011;66135;0.000;0.000;2023-05-29T10:49:15;3.65;;;0.90;;
77160;SDS011;66135;0.000;0.000;2023-05-29T10:51:47;4.10;;;0.73;;
77160;SDS011;66135;0.000;0.000;2023-05-29T10:54:13;6.05;;;0.75;;
77160;SDS011;66135;0.000;0.000;2023-05-29T10:59:05;4.55;;;0.85;;
77160;SDS011;66135;0.000;0.000;2023-05-29T11:01:32;4.03;;;1.48;;
77160;SDS011;66135;0.000;0.000;2023-05-29T11:06:42;1.70;;;0.50;;
77160;SDS011;66135;0.000;0.000;2023-05-29T11:09:25;3.88;;;0.60;;
77160;SDS011;66135;0.000;0.000;2023-05-29T11:14:55;3.55;;;0.77;;
77160;SDS011;66135;0.000;0.000;2023-05-29T11:17:42;5.15;;;1.00;;
77160;SDS011;66135;0.000;0.000;2023-05-29T11:20:17;3.60;;;0.73;;
77160;SDS011;66135;0.000;0.000;2023-05-29T11:25:24;2.70;;;0.77;;
77160;SDS011;66135;0.000;0.000;2023-05-29T11:30:17;2.72;;;0.82;;
77160;SDS011;66135;0.000;0.000;2023-05-29T11:32:43;3.60;;;0.88;;
77160;SDS011;66135;0.000;0.000;2023-05-29T11:35:11;4.43;;;0.47;;
77160;SDS011;66135;0.000;0.000;2023-05-29T11:37:38;3.47;;;0.57;;
77160;SDS011;66135;0.000;0.000;2023-05-29T11:40:05;4.03;;;0.55;;
77160;SDS011;66135;0.000;0.000;2023-05-29T11:42:33;3.28;;;0.50;;
77160;SDS011;66135;0.000;0.000;2023-05-29T11:47:55;3.38;;;0.85;;
77160;SDS011;66135;0.000;0.000;2023-05-29T11:50:22;3.13;;;0.65;;
77160;SDS011;66135;0.000;0.000;2023-05-29T11:52:49;4.63;;;0.50;;
77160;SDS011;66135;0.000;0.000;2023-05-29T11:55:17;2.45;;;0.65;;
77160;SDS011;66135;0.000;0.000;2023-05-29T11:57:44;3.17;;;0.95;;
77160;SDS011;66135;0.000;0.000;2023-05-29T12:02:38;2.97;;;0.63;;
77160;SDS011;66135;0.000;0.000;2023-05-29T12:07:30;3.08;;;1.25;;
77160;SDS011;66135;0.000;0.000;2023-05-29T12:12:23;5.05;;;0.75;;
77160;SDS011;66135;0.000;0.000;2023-05-29T12:17:17;3.38;;;0.40;;
77160;SDS011;66135;0.000;0.000;2023-05-29T12:19:43;4.55;;;0.77;;
77160;SDS011;66135;0.000;0.000;2023-05-29T12:24:35;2.22;;;0.35;;
77160;SDS011;66135;0.000;0.000;2023-05-29T12:29:38;3.83;;;1.17;;
77160;SDS011;66135;0.000;0.000;2023-05-29T12:32:03;2.45;;;0.65;;
77160;SDS011;66135;0.000;0.000;2023-05-29T12:37:05;3.42;;;0.20;;
77160;SDS011;66135;0.000;0.000;2023-05-29T12:39:34;4.03;;;0.93;;
77160;SDS011;66135;0.000;0.000;2023-05-29T12:44:25;4.47;;;0.47;;
77160;SDS011;66135;0.000;0.000;2023-05-29T12:49:21;3.58;;;0.70;;
77160;SDS011;66135;0.000;0.000;2023-05-29T12:51:50;3.65;;;0.32;;
77160;SDS011;66135;0.000;0.000;2023-05-29T12:54:17;2.03;;;0.40;;
77160;SDS011;66135;0.000;0.000;2023-05-29T12:59:08;2.72;;;0.52;;
77160;SDS011;66135;0.000;0.000;2023-05-29T13:01:35;2.03;;;1.15;;
77160;SDS011;66135;0.000;0.000;2023-05-29T13:04:03;3.25;;;1.15;;
77160;SDS011;66135;0.000;0.000;2023-05-29T13:06:33;1.77;;;0.43;;
77160;SDS011;66135;0.000;0.000;2023-05-29T13:08:59;2.58;;;0.55;;
77160;SDS011;66135;0.000;0.000;2023-05-29T13:13:50;2.20;;;0.63;;
77160;SDS011;66135;0.000;0.000;2023-05-29T13:18:42;2.95;;;1.05;;
77160;SDS011;66135;0.000;0.000;2023-05-29T13:23:33;3.65;;;0.40;;
77160;SDS011;66135;0.000;0.000;2023-05-29T13:28:24;2.93;;;0.40;;
77160;SDS011;66135;0.000;0.000;2023-05-29T13:33:14;3.13;;;0.35;;
77160;SDS011;66135;0.000;0.000;2023-05-29T13:35:40;1.67;;;0.50;;
77160;SDS011;66135;0.000;0.000;2023-05-29T13:40:31;2.85;;;0.50;;
77160;SDS011;66135;0.000;0.000;2023-05-29T13:45:22;4.05;;;0.47;;
77160;SDS011;66135;0.000;0.000;2023-05-29T13:50:13;1.88;;;0.65;;
77160;SDS011;66135;0.000;0.000;2023-05-29T13:55:04;4.50;;;0.80;;
77160;SDS011;66135;0.000;0.000;2023-05-29T13:57:33;2.00;;;0.63;;
77160;SDS011;66135;0.000;0.000;2023-05-29T13:59:59;3.35;;;0.40;;
77160;SDS011;66135;0.000;0.000;2023-05-29T14:04:51;2.63;;;0.93;;
77160;SDS011;66135;0.000;0.000;2023-05-29T14:09:42;2.05;;;0.57;;
77160;SDS011;66135;0.000;0.000;2023-05-29T14:14:33;3.05;;;0.40;;
77160;SDS011;66135;0.000;0.000;2023-05-29T14:16:59;1.75;;;0.65;;
77160;SDS011;66135;0.000;0.000;2023-05-29T14:21:50;2.57;;;0.73;;
77160;SDS011;66135;0.000;0.000;2023-05-29T14:26:42;1.23;;;0.28;;
77160;SDS011;66135;0.000;0.000;2023-05-29T14:29:11;2.60;;;0.55;;
77160;SDS011;66135;0.000;0.000;2023-05-29T14:31:37;2.78;;;0.30;;
77160;SDS011;66135;0.000;0.000;2023-05-29T14:36:28;2.23;;;0.20;;
77160;SDS011;66135;0.000;0.000;2023-05-29T14:38:54;2.22;;;0.47;;
77160;SDS011;66135;0.000;0.000;2023-05-29T14:43:45;3.10;;;0.55;;
77160;SDS011;66135;0.000;0.000;2023-05-29T14:48:35;2.03;;;0.50;;
77160;SDS011;66135;0.000;0.000;2023-05-29T14:53:26;2.25;;;0.70;;
77160;SDS011;66135;0.000;0.000;2023-05-29T14:58:17;2.92;;;0.70;;
77160;SDS011;66135;0.000;0.000;2023-05-29T15:03:08;1.03;;;0.17;;
77160;SDS011;66135;0.000;0.000;2023-05-29T15:07:59;1.88;;;0.52;;
77160;SDS011;66135;0.000;0.000;2023-05-29T15:10:25;2.78;;;0.68;;
77160;SDS011;66135;0.000;0.000;2023-05-29T15:12:51;4.00;;;0.77;;
77160;SDS011;66135;0.000;0.000;2023-05-29T15:15:22;2.47;;;0.43;;
77160;SDS011;66135;0.000;0.000;2023-05-29T15:17:56;3.35;;;0.70;;
77160;SDS011;66135;0.000;0.000;2023-05-29T15:22:47;3.42;;;0.40;;
77160;SDS011;66135;0.000;0.000;2023-05-29T15:27:38;4.95;;;1.10;;
77160;SDS011;66135;0.000;0.000;2023-05-29T15:32:33;6.63;;;1.92;;
77160;SDS011;66135;0.000;0.000;2023-05-29T15:37:24;7.43;;;1.73;;
77160;SDS011;66135;0.000;0.000;2023-05-29T15:42:14;7.50;;;1.77;;
77160;SDS011;66135;0.000;0.000;2023-05-29T15:47:05;27.92;;;11.45;;
77160;SDS011;66135;0.000;0.000;2023-05-29T15:49:31;53.80;;;32.67;;
77160;SDS011;66135;0.000;0.000;2023-05-29T15:51:57;143.05;;;75.40;;
77160;SDS011;66135;0.000;0.000;2023-05-29T15:56:47;194.87;;;136.33;;
77160;SDS011;66135;0.000;0.000;2023-05-29T16:01:38;130.10;;;86.00;;
77160;SDS011;66135;0.000;0.000;2023-05-29T16:06:29;106.32;;;63.47;;
77160;SDS011;66135;0.000;0.000;2023-05-29T16:11:19;76.68;;;48.70;;
77160;SDS011;66135;0.000;0.000;2023-05-29T16:16:11;67.57;;;41.75;;
77160;SDS011;66135;0.000;0.000;2023-05-29T16:21:02;52.03;;;31.83;;
77160;SDS011;66135;0.000;0.000;2023-05-29T16:25:52;48.23;;;30.87;;
77160;SDS011;66135;0.000;0.000;2023-05-29T16:30:43;45.00;;;26.03;;
77160;SDS011;66135;0.000;0.000;2023-05-29T16:58:51;22.17;;;13.95;;
77160;SDS011;66135;0.000;0.000;2023-05-29T17:03:42;22.10;;;13.27;;
77160;SDS011;66135;0.000;0.000;2023-05-29T17:08:33;23.30;;;11.87;;
77160;SDS011;66135;0.000;0.000;2023-05-29T17:10:58;22.95;;;12.20;;
77160;SDS011;66135;0.000;0.000;2023-05-29T17:15:49;22.02;;;11.80;;
77160;SDS011;66135;0.000;0.000;2023-05-29T17:20:40;22.05;;;9.82;;
77160;SDS011;66135;0.000;0.000;2023-05-29T17:23:05;21.92;;;9.98;;
77160;SDS011;66135;0.000;0.000;2023-05-29T17:25:31;21.65;;;10.98;;
77160;SDS011;66135;0.000;0.000;2023-05-29T17:30:23;18.45;;;10.73;;
77160;SDS011;66135;0.000;0.000;2023-05-29T17:32:49;17.45;;;9.70;;
77160;SDS011;66135;0.000;0.000;2023-05-29T17:37:42;20.60;;;10.07;;
77160;SDS011;66135;0.000;0.000;2023-05-29T17:42:34;20.73;;;9.52;;
77160;SDS011;66135;0.000;0.000;2023-05-29T17:47:25;19.25;;;9.65;;
77160;SDS011;66135;0.000;0.000;2023-05-29T17:52:15;18.13;;;9.20;;
77160;SDS011;66135;0.000;0.000;2023-05-29T17:54:41;19.00;;;9.05;;
77160;SDS011;66135;0.000;0.000;2023-05-29T17:59:31;17.03;;;8.07;;
77160;SDS011;66135;0.000;0.000;2023-05-29T18:04:23;18.92;;;8.68;;
77160;SDS011;66135;0.000;0.000;2023-05-29T18:09:14;17.43;;;9.27;;
77160;SDS011;66135;0.000;0.000;2023-05-29T18:14:08;17.33;;;7.30;;
77160;SDS011;66135;0.000;0.000;2023-05-29T18:19:00;15.00;;;8.18;;
77160;SDS011;66135;0.000;0.000;2023-05-29T18:23:51;15.30;;;7.60;;
77160;SDS011;66135;0.000;0.000;2023-05-29T18:26:17;16.83;;;8.02;;
77160;SDS011;66135;0.000;0.000;2023-05-29T18:28:43;14.85;;;8.30;;
77160;SDS011;66135;0.000;0.000;2023-05-29T18:33:33;17.60;;;8.07;;
77160;SDS011;66135;0.000;0.000;2023-05-29T18:38:24;15.30;;;7.00;;
77160;SDS011;66135;0.000;0.000;2023-05-29T18:40:50;15.13;;;7.30;;
77160;SDS011;66135;0.000;0.000;2023-05-29T18:43:15;15.55;;;6.80;;
77160;SDS011;66135;0.000;0.000;2023-05-29T18:48:06;16.20;;;7.57;;
77160;SDS011;66135;0.000;0.000;2023-05-29T18:52:57;17.15;;;6.95;;
77160;SDS011;66135;0.000;0.000;2023-05-29T18:57:47;10.93;;;7.63;;
77160;SDS011;66135;0.000;0.000;2023-05-29T19:02:39;14.38;;;6.15;;
77160;SDS011;66135;0.000;0.000;2023-05-29T19:07:31;15.20;;;7.40;;
77160;SDS011;66135;0.000;0.000;2023-05-29T19:12:21;13.30;;;6.03;;
77160;SDS011;66135;0.000;0.000;2023-05-29T19:17:12;13.63;;;7.83;;
77160;SDS011;66135;0.000;0.000;2023-05-29T19:19:39;13.68;;;5.47;;
77160;SDS011;66135;0.000;0.000;2023-05-29T19:24:31;11.43;;;5.88;;
77160;SDS011;66135;0.000;0.000;2023-05-29T19:29:22;10.65;;;4.88;;
77160;SDS011;66135;0.000;0.000;2023-05-29T19:34:16;8.90;;;4.05;;
77160;SDS011;66135;0.000;0.000;2023-05-29T19:36:42;10.98;;;5.20;;
77160;SDS011;66135;0.000;0.000;2023-05-29T19:41:34;9.05;;;6.10;;
77160;SDS011;66135;0.000;0.000;2023-05-29T19:44:02;9.60;;;4.97;;
77160;SDS011;66135;0.000;0.000;2023-05-29T19:46:30;11.75;;;4.75;;
77160;SDS011;66135;0.000;0.000;2023-05-29T19:51:21;9.57;;;4.53;;
77160;SDS011;66135;0.000;0.000;2023-05-29T19:56:12;10.93;;;4.97;;
77160;SDS011;66135;0.000;0.000;2023-05-29T19:58:37;7.82;;;5.15;;
77160;SDS011;66135;0.000;0.000;2023-05-29T20:03:28;10.40;;;4.68;;
77160;SDS011;66135;0.000;0.000;2023-05-29T20:05:56;10.35;;;4.60;;
77160;SDS011;66135;0.000;0.000;2023-05-29T20:10:47;10.45;;;5.50;;
77160;SDS011;66135;0.000;0.000;2023-05-29T20:13:13;7.55;;;4.43;;
77160;SDS011;66135;0.000;0.000;2023-05-29T20:18:03;9.57;;;4.17;;
77160;SDS011;66135;0.000;0.000;2023-05-29T20:22:55;9.40;;;5.38;;
77160;SDS011;66135;0.000;0.000;2023-05-29T20:27:46;8.70;;;4.72;;
77160;SDS011;66135;0.000;0.000;2023-05-29T20:32:36;11.63;;;3.53;;
77160;SDS011;66135;0.000;0.000;2023-05-29T20:35:03;9.23;;;5.47;;
77160;SDS011;66135;0.000;0.000;2023-05-29T20:37:29;7.07;;;3.35;;
77160;SDS011;66135;0.000;0.000;2023-05-29T20:39:58;7.50;;;3.85;;
77160;SDS011;66135;0.000;0.000;2023-05-29T20:42:24;8.02;;;3.38;;
77160;SDS011;66135;0.000;0.000;2023-05-29T20:47:16;8.73;;;4.22;;
77160;SDS011;66135;0.000;0.000;2023-05-29T20:49:42;8.75;;;3.63;;
77160;SDS011;66135;0.000;0.000;2023-05-29T20:54:33;8.43;;;3.97;;
77160;SDS011;66135;0.000;0.000;2023-05-29T20:59:24;7.75;;;3.70;;
77160;SDS011;66135;0.000;0.000;2023-05-29T21:01:49;7.43;;;3.60;;
77160;SDS011;66135;0.000;0.000;2023-05-29T21:06:40;10.13;;;3.53;;
77160;SDS011;66135;0.000;0.000;2023-05-29T21:09:06;7.25;;;3.70;;
77160;SDS011;66135;0.000;0.000;2023-05-29T21:13:57;6.20;;;3.58;;
77160;SDS011;66135;0.000;0.000;2023-05-29T21:18:48;7.67;;;3.47;;
77160;SDS011;66135;0.000;0.000;2023-05-29T21:23:39;5.43;;;3.20;;
77160;SDS011;66135;0.000;0.000;2023-05-29T21:26:05;6.40;;;3.03;;
77160;SDS011;66135;0.000;0.000;2023-05-29T21:30:55;6.47;;;3.27;;
77160;SDS011;66135;0.000;0.000;2023-05-29T21:35:50;8.18;;;3.10;;
77160;SDS011;66135;0.000;0.000;2023-05-29T21:40:41;6.67;;;2.97;;
77160;SDS011;66135;0.000;0.000;2023-05-29T21:43:06;5.78;;;3.08;;
77160;SDS011;66135;0.000;0.000;2023-05-29T21:45:32;5.05;;;2.60;;
77160;SDS011;66135;0.000;0.000;2023-05-29T21:47:57;5.78;;;3.45;;
77160;SDS011;66135;0.000;0.000;2023-05-29T21:52:49;7.90;;;3.13;;
77160;SDS011;66135;0.000;0.000;2023-05-29T21:55:14;6.35;;;2.60;;
77160;SDS011;66135;0.000;0.000;2023-05-29T21:57:42;4.40;;;2.38;;
77160;SDS011;66135;0.000;0.000;2023-05-29T22:02:34;5.30;;;3.35;;
77160;SDS011;66135;0.000;0.000;2023-05-29T22:07:26;6.00;;;2.53;;
77160;SDS011;66135;0.000;0.000;2023-05-29T22:12:16;5.72;;;3.15;;
77160;SDS011;66135;0.000;0.000;2023-05-29T22:17:07;4.38;;;1.95;;
77160;SDS011;66135;0.000;0.000;2023-05-29T22:19:34;5.30;;;2.58;;
77160;SDS011;66135;0.000;0.000;2023-05-29T22:24:26;5.70;;;3.10;;
77160;SDS011;66135;0.000;0.000;2023-05-29T22:29:16;4.65;;;1.80;;
77160;SDS011;66135;0.000;0.000;2023-05-29T22:31:43;7.93;;;3.10;;
77160;SDS011;66135;0.000;0.000;2023-05-29T22:36:34;3.95;;;1.92;;
77160;SDS011;66135;0.000;0.000;2023-05-29T22:41:25;5.75;;;2.15;;
77160;SDS011;66135;0.000;0.000;2023-05-29T22:46:16;5.78;;;2.40;;
77160;SDS011;66135;0.000;0.000;2023-05-29T22:51:07;5.57;;;1.73;;
77160;SDS011;66135;0.000;0.000;2023-05-29T22:53:33;4.70;;;1.85;;
77160;SDS011;66135;0.000;0.000;2023-05-29T22:58:24;4.63;;;2.05;;
77160;SDS011;66135;0.000;0.000;2023-05-29T23:03:16;9.13;;;1.75;;
77160;SDS011;66135;0.000;0.000;2023-05-29T23:08:07;3.78;;;1.70;;
77160;SDS011;66135;0.000;0.000;2023-05-29T23:10:34;3.33;;;1.77;;
77160;SDS011;66135;0.000;0.000;2023-05-29T23:13:01;3.30;;;1.73;;
77160;SDS011;66135;0.000;0.000;2023-05-29T23:15:30;5.13;;;1.90;;
77160;SDS011;66135;0.000;0.000;2023-05-29T23:17:56;4.05;;;1.70;;
77160;SDS011;66135;0.000;0.000;2023-05-29T23:22:47;3.17;;;1.53;;
77160;SDS011;66135;0.000;0.000;2023-05-29T23:27:38;2.67;;;1.10;;
77160;SDS011;66135;0.000;0.000;2023-05-29T23:30:04;3.55;;;1.60;;
77160;SDS011;66135;0.000;0.000;2023-05-29T23:32:30;3.40;;;1.42;;
77160;SDS011;66135;0.000;0.000;2023-05-29T23:37:21;2.75;;;2.28;;